createdAt,value
2023-12-08T00:00:09.002Z,-1.32
2023-12-08T00:02:36.194Z,-1.33
2023-12-08T00:05:04.645Z,-1.33
2023-12-08T00:07:31.476Z,-1.34
2023-12-08T00:09:59.154Z,-1.34
2023-12-08T00:12:25.938Z,-1.34
2023-12-08T00:14:52.938Z,-1.35
2023-12-08T00:17:21.325Z,-1.35
2023-12-08T00:19:48.090Z,-1.35
2023-12-08T00:22:14.866Z,-1.37
2023-12-08T00:24:41.753Z,-1.37
2023-12-08T00:27:08.829Z,-1.38
2023-12-08T00:29:35.988Z,-1.38
2023-12-08T00:32:03.009Z,-1.41
2023-12-08T00:34:29.794Z,-1.43
2023-12-08T00:36:57.019Z,-1.44
2023-12-08T00:39:23.910Z,-1.46
2023-12-08T00:41:50.800Z,-1.47
2023-12-08T00:44:17.869Z,-1.47
2023-12-08T00:46:44.773Z,-1.46
2023-12-08T00:49:11.898Z,-1.47
2023-12-08T00:51:39.497Z,-1.46
2023-12-08T00:54:06.272Z,-1.48
2023-12-08T00:56:33.433Z,-1.48
2023-12-08T00:59:00.528Z,-1.48
2023-12-08T01:01:27.521Z,-1.48
2023-12-08T01:03:54.570Z,-1.48
2023-12-08T01:06:21.717Z,-1.48
2023-12-08T01:08:48.623Z,-1.47
2023-12-08T01:11:15.751Z,-1.46
2023-12-08T01:13:42.492Z,-1.47
2023-12-08T01:16:09.511Z,-1.47
2023-12-08T01:18:36.556Z,-1.46
2023-12-08T01:21:04.486Z,-1.46
2023-12-08T01:23:31.466Z,-1.46
2023-12-08T01:25:58.803Z,-1.45
2023-12-08T01:28:25.753Z,-1.45
2023-12-08T01:30:52.655Z,-1.45
2023-12-08T01:33:28.816Z,-1.47
2023-12-08T01:36:37.442Z,-1.48
2023-12-08T01:38:47.417Z,-1.49
2023-12-08T01:41:17.887Z,-1.50
2023-12-08T01:43:45.460Z,-1.52
2023-12-08T01:46:20.710Z,-1.54
2023-12-08T01:48:48.775Z,-1.56
2023-12-08T01:51:17.748Z,-1.57
2023-12-08T01:53:46.976Z,-1.57
2023-12-08T01:56:15.344Z,-1.56
2023-12-08T01:58:42.502Z,-1.56
2023-12-08T02:01:11.647Z,-1.58
2023-12-08T02:03:41.545Z,-1.60
2023-12-08T02:06:11.010Z,-1.59
2023-12-08T02:08:38.547Z,-1.59
2023-12-08T02:11:05.790Z,-1.59
2023-12-08T02:13:33.497Z,-1.58
2023-12-08T02:16:33.128Z,-1.59
2023-12-08T02:19:00.929Z,-1.59
2023-12-08T02:21:28.991Z,-1.59
2023-12-08T02:23:56.172Z,-1.60
2023-12-08T02:26:22.892Z,-1.60
2023-12-08T02:28:49.980Z,-1.61
2023-12-08T02:31:20.937Z,-1.62
2023-12-08T02:33:52.977Z,-1.62
2023-12-08T02:36:21.129Z,-1.63
2023-12-08T02:38:49.355Z,-1.62
2023-12-08T02:41:16.412Z,-1.63
2023-12-08T02:43:43.561Z,-1.63
2023-12-08T02:46:10.506Z,-1.63
2023-12-08T02:48:37.492Z,-1.64
2023-12-08T02:51:05.188Z,-1.64
2023-12-08T02:53:32.280Z,-1.64
2023-12-08T02:55:59.268Z,-1.65
2023-12-08T02:58:26.796Z,-1.66
2023-12-08T03:00:53.730Z,-1.67
2023-12-08T03:03:20.613Z,-1.67
2023-12-08T03:05:47.698Z,-1.69
2023-12-08T03:08:14.602Z,-1.71
2023-12-08T03:10:41.501Z,-1.71
2023-12-08T03:13:08.552Z,-1.72
2023-12-08T03:15:35.448Z,-1.73
2023-12-08T03:18:02.410Z,-1.73
2023-12-08T03:20:29.318Z,-1.74
2023-12-08T03:22:56.980Z,-1.75
2023-12-08T03:25:23.890Z,-1.76
2023-12-08T03:27:51.075Z,-1.76
2023-12-08T03:30:18.155Z,-1.77
2023-12-08T03:32:45.035Z,-1.79
2023-12-08T03:35:12.611Z,-1.82
2023-12-08T03:37:39.563Z,-1.84
2023-12-08T03:40:07.223Z,-1.85
2023-12-08T03:42:38.032Z,-1.87
2023-12-08T03:45:06.301Z,-1.90
2023-12-08T03:47:33.523Z,-1.93
2023-12-08T03:50:00.691Z,-1.96
2023-12-08T03:52:28.095Z,-2.00
2023-12-08T03:54:55.014Z,-2.05
2023-12-08T03:57:22.644Z,-2.10
2023-12-08T03:59:49.652Z,-2.14
2023-12-08T04:02:16.689Z,-2.18
2023-12-08T04:04:43.864Z,-2.24
2023-12-08T04:07:10.803Z,-2.28
2023-12-08T04:09:37.692Z,-2.34
2023-12-08T04:12:05.044Z,-2.38
2023-12-08T04:14:32.006Z,-2.40
2023-12-08T04:16:59.035Z,-2.42
2023-12-08T04:19:26.634Z,-2.44
2023-12-08T04:21:53.712Z,-2.45
2023-12-08T04:24:20.664Z,-2.46
2023-12-08T04:26:48.122Z,-2.46
2023-12-08T04:29:15.198Z,-2.44
2023-12-08T04:31:42.149Z,-2.43
2023-12-08T04:34:09.514Z,-2.43
2023-12-08T04:36:36.554Z,-2.44
2023-12-08T04:39:03.986Z,-2.46
2023-12-08T04:41:31.435Z,-2.45
2023-12-08T04:43:58.394Z,-2.45
2023-12-08T04:46:26.141Z,-2.46
2023-12-08T04:48:53.250Z,-2.46
2023-12-08T04:51:20.959Z,-2.45
2023-12-08T04:53:47.905Z,-2.45
2023-12-08T04:56:14.905Z,-2.47
2023-12-08T04:58:41.664Z,-2.47
2023-12-08T05:01:13.764Z,-2.47
2023-12-08T05:03:41.623Z,-2.47
2023-12-08T05:06:09.788Z,-2.48
2023-12-08T05:08:37.402Z,-2.48
2023-12-08T05:11:04.517Z,-2.51
2023-12-08T05:13:31.479Z,-2.53
2023-12-08T05:15:58.369Z,-2.56
2023-12-08T05:18:25.595Z,-2.60
2023-12-08T05:20:53.076Z,-2.63
2023-12-08T05:23:19.960Z,-2.65
2023-12-08T05:25:47.195Z,-2.69
2023-12-08T05:28:13.892Z,-2.74
2023-12-08T05:30:40.793Z,-2.79
2023-12-08T05:33:08.092Z,-2.84
2023-12-08T05:35:35.117Z,-2.88
2023-12-08T05:38:02.064Z,-2.91
2023-12-08T05:40:29.508Z,-2.94
2023-12-08T05:42:56.449Z,-2.95
2023-12-08T05:45:23.389Z,-2.98
2023-12-08T05:47:50.604Z,-3.00
2023-12-08T05:50:18.492Z,-3.04
2023-12-08T05:52:45.395Z,-3.10
2023-12-08T05:55:12.324Z,-3.15
2023-12-08T05:57:39.408Z,-3.19
2023-12-08T06:00:08.063Z,-3.21
2023-12-08T06:02:35.044Z,-3.25
2023-12-08T06:05:01.951Z,-3.28
2023-12-08T06:07:29.250Z,-3.34
2023-12-08T06:09:56.998Z,-3.42
2023-12-08T06:12:26.322Z,-3.50
2023-12-08T06:14:53.384Z,-3.56
2023-12-08T06:17:20.528Z,-3.58
2023-12-08T06:19:47.539Z,-3.61
2023-12-08T06:22:14.724Z,-3.66
2023-12-08T06:24:41.974Z,-3.72
2023-12-08T06:27:08.887Z,-3.79
2023-12-08T06:29:35.687Z,-3.82
2023-12-08T06:32:02.899Z,-3.84
2023-12-08T06:34:30.419Z,-3.88
2023-12-08T06:36:57.472Z,-3.97
2023-12-08T06:39:24.649Z,-4.05
2023-12-08T06:41:51.629Z,-4.12
2023-12-08T06:44:18.706Z,-4.19
2023-12-08T06:46:46.008Z,-4.24
2023-12-08T06:49:14.622Z,-4.29
2023-12-08T06:51:41.627Z,-4.35
2023-12-08T06:54:08.798Z,-4.41
2023-12-08T06:56:35.985Z,-4.47
2023-12-08T06:59:03.289Z,-4.53
2023-12-08T07:01:30.401Z,-4.57
2023-12-08T07:03:57.365Z,-4.59
2023-12-08T07:06:24.381Z,-4.62
2023-12-08T07:08:52.010Z,-4.65
2023-12-08T07:11:19.035Z,-4.70
2023-12-08T07:13:45.985Z,-4.75
2023-12-08T07:16:12.819Z,-4.81
2023-12-08T07:18:39.919Z,-4.85
2023-12-08T07:21:07.242Z,-4.86
2023-12-08T07:23:35.320Z,-4.88
2023-12-08T07:26:03.745Z,-4.89
2023-12-08T07:28:30.699Z,-4.91
2023-12-08T07:30:58.163Z,-4.90
2023-12-08T07:33:25.424Z,-4.88
2023-12-08T07:35:55.109Z,-4.84
2023-12-08T07:38:22.130Z,-4.81
2023-12-08T07:40:49.145Z,-4.76
2023-12-08T07:43:16.116Z,-4.71
2023-12-08T07:45:43.264Z,-4.65
2023-12-08T07:48:10.583Z,-4.57
2023-12-08T07:50:37.717Z,-4.51
2023-12-08T07:53:04.948Z,-4.44
2023-12-08T07:55:31.884Z,-4.39
2023-12-08T07:57:58.803Z,-4.33
2023-12-08T08:00:26.585Z,-4.28
2023-12-08T08:02:53.468Z,-4.21
2023-12-08T08:05:20.601Z,-4.16
2023-12-08T08:07:48.365Z,-4.10
2023-12-08T08:10:15.052Z,-4.04
2023-12-08T08:12:41.746Z,-3.98
2023-12-08T08:15:09.266Z,-3.91
2023-12-08T08:17:36.254Z,-3.83
2023-12-08T08:20:03.390Z,-3.76
2023-12-08T08:22:32.996Z,-3.65
2023-12-08T08:25:01.518Z,-3.54
2023-12-08T08:27:29.414Z,-3.43
2023-12-08T08:29:56.727Z,-3.26
2023-12-08T08:32:23.739Z,-3.05
2023-12-08T08:34:55.253Z,-2.82
2023-12-08T08:37:25.084Z,-2.60
2023-12-08T08:39:52.261Z,-2.42
2023-12-08T08:42:19.226Z,-2.27
2023-12-08T08:44:46.363Z,-2.13
2023-12-08T08:47:13.656Z,-2.02
2023-12-08T08:49:40.919Z,-1.93
2023-12-08T08:52:08.431Z,-1.86
2023-12-08T08:54:35.397Z,-1.79
2023-12-08T08:57:02.527Z,-1.71
2023-12-08T08:59:29.596Z,-1.61
2023-12-08T09:01:56.545Z,-1.54
2023-12-08T09:04:23.793Z,-1.47
2023-12-08T09:06:51.650Z,-1.40
2023-12-08T09:09:18.900Z,-1.35
2023-12-08T09:11:46.015Z,-1.28
2023-12-08T09:14:13.252Z,-1.22
2023-12-08T09:16:40.738Z,-1.14
2023-12-08T09:19:08.460Z,-1.08
2023-12-08T09:21:42.548Z,-1.09
2023-12-08T09:24:16.341Z,-1.10
2023-12-08T09:26:43.515Z,-1.10
2023-12-08T09:29:11.018Z,-1.10
2023-12-08T09:31:38.116Z,-1.09
2023-12-08T09:34:05.678Z,-1.08
2023-12-08T09:36:32.864Z,-1.07
2023-12-08T09:38:59.820Z,-1.07
2023-12-08T09:41:28.884Z,-1.07
2023-12-08T09:44:08.152Z,-1.04
2023-12-08T09:46:36.436Z,-0.99
2023-12-08T09:49:05.328Z,-0.95
2023-12-08T09:51:32.373Z,-0.92
2023-12-08T09:54:00.466Z,-0.92
2023-12-08T09:56:29.780Z,-0.92
2023-12-08T09:58:56.805Z,-0.88
2023-12-08T10:01:24.000Z,-0.84
2023-12-08T10:03:51.501Z,-0.81
2023-12-08T10:06:20.601Z,-0.79
2023-12-08T10:08:47.615Z,-0.77
2023-12-08T10:11:16.273Z,-0.75
2023-12-08T10:13:44.240Z,-0.71
2023-12-08T10:16:11.934Z,-0.72
2023-12-08T10:18:38.879Z,-0.74
2023-12-08T10:21:18.188Z,-0.74
2023-12-08T10:23:46.328Z,-0.71
2023-12-08T10:26:17.629Z,-0.68
2023-12-08T10:28:44.530Z,-0.67
2023-12-08T10:31:14.228Z,-0.65
2023-12-08T10:33:43.154Z,-0.61
2023-12-08T10:36:10.622Z,-0.56
2023-12-08T10:38:38.038Z,-0.52
2023-12-08T10:41:06.945Z,-0.49
2023-12-08T10:43:33.894Z,-0.47
2023-12-08T10:46:01.941Z,-0.47
2023-12-08T10:48:28.960Z,-0.48
2023-12-08T10:50:57.044Z,-0.48
2023-12-08T10:53:23.850Z,-0.44
2023-12-08T10:56:07.828Z,-0.37
2023-12-08T10:58:37.464Z,-0.31
2023-12-08T11:01:08.746Z,-0.27
2023-12-08T11:03:36.852Z,-0.23
2023-12-08T11:06:16.614Z,-0.19
2023-12-08T11:08:47.278Z,-0.15
2023-12-08T11:11:15.344Z,-0.14
2023-12-08T11:13:47.170Z,-0.10
2023-12-08T11:16:56.721Z,-0.06
2023-12-08T11:19:25.015Z,-0.01
2023-12-08T11:21:54.079Z,0.03
2023-12-08T11:24:23.084Z,0.07
2023-12-08T11:27:08.592Z,0.12
2023-12-08T11:29:49.249Z,0.22
2023-12-08T11:32:40.414Z,0.30
2023-12-08T11:35:13.707Z,0.37
2023-12-08T11:37:44.807Z,0.45
2023-12-08T11:40:13.595Z,0.48
2023-12-08T11:42:43.466Z,0.51
2023-12-08T11:45:12.226Z,0.54
2023-12-08T11:47:39.449Z,0.59
2023-12-08T11:50:08.597Z,0.62
2023-12-08T11:52:40.085Z,0.63
2023-12-08T11:55:15.146Z,0.69
2023-12-08T11:57:55.850Z,0.74
2023-12-08T12:00:24.527Z,0.80
2023-12-08T12:02:52.527Z,0.85
2023-12-08T12:05:20.355Z,0.89
2023-12-08T12:07:51.267Z,0.94
2023-12-08T12:10:22.955Z,1.00
2023-12-08T12:12:54.862Z,1.06
2023-12-08T12:15:24.909Z,1.11
2023-12-08T12:17:55.577Z,1.13
2023-12-08T12:20:22.554Z,1.10
2023-12-08T12:22:49.734Z,1.05
2023-12-08T12:25:16.749Z,0.98
2023-12-08T12:27:47.532Z,0.91
2023-12-08T12:30:15.932Z,0.88
2023-12-08T12:32:42.998Z,0.82
2023-12-08T12:35:10.183Z,0.76
2023-12-08T12:37:37.120Z,0.70
2023-12-08T12:40:09.039Z,0.68
2023-12-08T12:42:47.372Z,0.61
2023-12-08T12:45:29.860Z,0.54
2023-12-08T12:48:10.907Z,0.50
2023-12-08T12:50:56.147Z,0.48
2023-12-08T12:53:24.198Z,0.44
2023-12-08T12:55:51.303Z,0.34
2023-12-08T12:58:22.745Z,0.29
2023-12-08T13:00:50.792Z,0.24
2023-12-08T13:03:20.005Z,0.23
2023-12-08T13:05:56.352Z,0.23
2023-12-08T13:08:24.470Z,0.20
2023-12-08T13:10:53.049Z,0.19
2023-12-08T13:13:20.531Z,0.12
2023-12-08T13:15:47.721Z,0.05
2023-12-08T13:18:15.100Z,0.02
2023-12-08T13:20:42.980Z,-0.01
2023-12-08T13:23:09.868Z,-0.09
2023-12-08T13:25:37.617Z,-0.15
2023-12-08T13:28:06.752Z,-0.21
2023-12-08T13:30:33.987Z,-0.25
2023-12-08T13:33:04.612Z,-0.30
2023-12-08T13:35:34.297Z,-0.33
2023-12-08T13:38:01.429Z,-0.39
2023-12-08T13:40:29.967Z,-0.43
2023-12-08T13:42:57.088Z,-0.49
2023-12-08T13:45:24.029Z,-0.55
2023-12-08T13:47:51.282Z,-0.58
2023-12-08T13:50:18.654Z,-0.59
2023-12-08T13:52:45.647Z,-0.60
2023-12-08T13:55:12.584Z,-0.61
2023-12-08T13:57:41.722Z,-0.66
2023-12-08T14:00:09.651Z,-0.70
2023-12-08T14:02:37.774Z,-0.74
2023-12-08T14:05:05.302Z,-0.77
2023-12-08T14:07:32.593Z,-0.79
2023-12-08T14:09:59.708Z,-0.81
2023-12-08T14:12:27.399Z,-0.82
2023-12-08T14:14:54.466Z,-0.84
2023-12-08T14:17:21.893Z,-0.88
2023-12-08T14:19:48.887Z,-0.92
2023-12-08T14:22:15.814Z,-0.95
2023-12-08T14:24:42.666Z,-0.98
2023-12-08T14:27:09.799Z,-1.01
2023-12-08T14:29:36.710Z,-1.05
2023-12-08T14:32:03.745Z,-1.11
2023-12-08T14:34:30.753Z,-1.14
2023-12-08T14:36:58.123Z,-1.19
2023-12-08T14:39:25.225Z,-1.25
2023-12-08T14:41:52.308Z,-1.31
2023-12-08T14:44:19.346Z,-1.34
2023-12-08T14:46:50.459Z,-1.36
2023-12-08T14:49:22.225Z,-1.37
2023-12-08T14:51:49.199Z,-1.39
2023-12-08T14:54:22.585Z,-1.41
2023-12-08T14:56:53.627Z,-1.44
2023-12-08T14:59:20.702Z,-1.49
2023-12-08T15:01:47.740Z,-1.51
2023-12-08T15:04:15.548Z,-1.54
2023-12-08T15:06:42.793Z,-1.55
2023-12-08T15:09:10.378Z,-1.56
2023-12-08T15:11:37.721Z,-1.55
2023-12-08T15:14:04.534Z,-1.57
2023-12-08T15:16:31.242Z,-1.58
2023-12-08T15:18:58.529Z,-1.58
2023-12-08T15:21:28.014Z,-1.59
2023-12-08T15:23:58.294Z,-1.58
2023-12-08T15:26:26.250Z,-1.58
2023-12-08T15:28:53.052Z,-1.58
2023-12-08T15:31:20.146Z,-1.60
2023-12-08T15:33:47.948Z,-1.62
2023-12-08T15:36:15.347Z,-1.64
2023-12-08T15:38:45.384Z,-1.64
2023-12-08T15:41:12.594Z,-1.66
2023-12-08T15:43:40.241Z,-1.68
2023-12-08T15:46:08.408Z,-1.69
2023-12-08T15:48:36.186Z,-1.69
2023-12-08T15:51:09.723Z,-1.69
2023-12-08T15:53:37.022Z,-1.72
2023-12-08T15:56:04.028Z,-1.75
2023-12-08T15:58:31.028Z,-1.78
2023-12-08T16:00:58.015Z,-1.81
2023-12-08T16:03:25.083Z,-1.83
2023-12-08T16:05:52.264Z,-1.84
2023-12-08T16:08:19.478Z,-1.84
2023-12-08T16:10:46.408Z,-1.85
2023-12-08T16:13:13.163Z,-1.87
2023-12-08T16:15:40.552Z,-1.88
2023-12-08T16:18:07.415Z,-1.90
2023-12-08T16:20:35.287Z,-1.91
2023-12-08T16:23:02.364Z,-1.92
2023-12-08T16:25:29.082Z,-1.93
2023-12-08T16:27:56.607Z,-1.94
2023-12-08T16:30:24.009Z,-1.95
2023-12-08T16:32:51.056Z,-1.96
2023-12-08T16:35:17.829Z,-1.94
2023-12-08T16:37:46.536Z,-1.95
2023-12-08T16:40:13.750Z,-1.96
2023-12-08T16:42:40.844Z,-1.97
2023-12-08T16:45:08.243Z,-1.99
2023-12-08T16:47:35.511Z,-2.00
2023-12-08T16:50:02.563Z,-2.00
2023-12-08T16:52:30.326Z,-2.02
2023-12-08T16:54:57.589Z,-2.03
2023-12-08T16:57:24.621Z,-2.04
2023-12-08T16:59:52.949Z,-2.05
2023-12-08T17:02:19.946Z,-2.08
2023-12-08T17:04:47.334Z,-2.11
2023-12-08T17:07:14.482Z,-2.13
2023-12-08T17:09:42.017Z,-2.17
2023-12-08T17:12:09.093Z,-2.21
2023-12-08T17:14:36.087Z,-2.23
2023-12-08T17:17:04.182Z,-2.23
2023-12-08T17:19:31.029Z,-2.23
2023-12-08T17:21:58.707Z,-2.23
2023-12-08T17:24:26.021Z,-2.24
2023-12-08T17:26:55.634Z,-2.24
2023-12-08T17:29:23.668Z,-2.24
2023-12-08T17:31:50.752Z,-2.26
2023-12-08T17:34:22.485Z,-2.26
2023-12-08T17:36:51.932Z,-2.25
2023-12-08T17:39:19.192Z,-2.27
2023-12-08T17:41:47.341Z,-2.29
2023-12-08T17:44:14.886Z,-2.31
2023-12-08T17:46:42.342Z,-2.29
2023-12-08T17:49:16.801Z,-2.26
2023-12-08T17:51:43.837Z,-2.25
2023-12-08T17:54:10.770Z,-2.24
2023-12-08T17:56:37.715Z,-2.23
2023-12-08T17:59:04.555Z,-2.22
2023-12-08T18:01:31.649Z,-2.21
2023-12-08T18:03:58.665Z,-2.21
2023-12-08T18:06:27.232Z,-2.19
2023-12-08T18:08:54.364Z,-2.17
2023-12-08T18:11:24.800Z,-2.15
2023-12-08T18:13:53.412Z,-2.14
2023-12-08T18:16:31.425Z,-2.13
2023-12-08T18:18:59.094Z,-2.11
2023-12-08T18:21:27.745Z,-2.10
2023-12-08T18:23:55.469Z,-2.09
2023-12-08T18:26:23.163Z,-2.08
2023-12-08T18:31:30.421Z,-2.08
2023-12-08T18:33:58.782Z,-2.07
2023-12-08T18:36:27.200Z,-2.08
2023-12-08T18:38:57.514Z,-2.08
2023-12-08T18:41:24.941Z,-2.08
2023-12-08T18:43:51.781Z,-2.07
2023-12-08T18:46:19.004Z,-2.07
2023-12-08T18:48:47.242Z,-2.09
2023-12-08T18:51:15.275Z,-2.10
2023-12-08T18:53:43.557Z,-2.09
2023-12-08T18:56:10.972Z,-2.07
2023-12-08T18:58:38.690Z,-2.06
2023-12-08T19:01:06.716Z,-2.06
2023-12-08T19:03:33.627Z,-2.07
2023-12-08T19:06:01.045Z,-2.07
2023-12-08T19:08:28.725Z,-2.08
2023-12-08T19:10:55.718Z,-2.07
2023-12-08T19:13:22.760Z,-2.05
2023-12-08T19:15:56.388Z,-2.04
2023-12-08T19:18:24.262Z,-2.04
2023-12-08T19:20:51.075Z,-2.03
2023-12-08T19:23:18.597Z,-2.02
2023-12-08T19:25:45.405Z,-2.00
2023-12-08T19:28:12.916Z,-1.99
2023-12-08T19:30:40.594Z,-1.99
2023-12-08T19:33:08.939Z,-1.99
2023-12-08T19:35:36.450Z,-1.98
2023-12-08T19:38:04.671Z,-1.98
2023-12-08T19:40:31.397Z,-1.98
2023-12-08T19:42:58.983Z,-1.98
2023-12-08T19:45:27.049Z,-1.99
2023-12-08T19:47:56.558Z,-2.00
2023-12-08T19:50:24.460Z,-1.99
2023-12-08T19:52:51.508Z,-2.00
2023-12-08T19:55:19.270Z,-1.99
2023-12-08T19:57:46.304Z,-1.99
2023-12-08T20:00:14.695Z,-1.99
2023-12-08T20:02:42.643Z,-1.99
2023-12-08T20:05:10.045Z,-1.99
2023-12-08T20:07:37.614Z,-1.98
2023-12-08T20:10:04.789Z,-1.99
2023-12-08T20:12:31.827Z,-1.99
2023-12-08T20:14:58.886Z,-2.00
2023-12-08T20:17:26.347Z,-2.02
2023-12-08T20:19:53.599Z,-2.03
2023-12-08T20:22:22.575Z,-2.04
2023-12-08T20:24:50.625Z,-2.05
2023-12-08T20:27:18.268Z,-2.06
2023-12-08T20:29:45.790Z,-2.06
2023-12-08T20:32:12.684Z,-2.07
2023-12-08T20:34:39.798Z,-2.08
2023-12-08T20:37:06.969Z,-2.09
2023-12-08T20:39:33.767Z,-2.10
2023-12-08T20:42:00.624Z,-2.12
2023-12-08T20:44:28.200Z,-2.14
2023-12-08T20:46:56.365Z,-2.15
2023-12-08T20:49:24.202Z,-2.18
2023-12-08T20:51:51.860Z,-2.20
2023-12-08T20:54:19.051Z,-2.22
2023-12-08T20:56:45.970Z,-2.25
2023-12-08T20:59:13.058Z,-2.27
2023-12-08T21:01:40.938Z,-2.28
2023-12-08T21:04:07.928Z,-2.31
2023-12-08T21:06:35.089Z,-2.33
2023-12-08T21:09:02.636Z,-2.35
2023-12-08T21:11:32.195Z,-2.36
2023-12-08T21:14:02.148Z,-2.37
2023-12-08T21:16:28.709Z,-2.38
2023-12-08T21:18:55.719Z,-2.39
2023-12-08T21:21:23.255Z,-2.40
2023-12-08T21:23:50.197Z,-2.40
2023-12-08T21:26:17.143Z,-2.39
2023-12-08T21:28:44.167Z,-2.39
2023-12-08T21:31:11.136Z,-2.40
2023-12-08T21:33:38.429Z,-2.40
2023-12-08T21:36:06.223Z,-2.41
2023-12-08T21:38:33.209Z,-2.41
2023-12-08T21:41:01.075Z,-2.41
2023-12-08T21:43:28.180Z,-2.43
2023-12-08T21:45:54.980Z,-2.48
2023-12-08T21:48:21.882Z,-2.52
2023-12-08T21:50:49.353Z,-2.56
2023-12-08T21:53:16.655Z,-2.57
2023-12-08T21:55:43.501Z,-2.58
2023-12-08T21:58:10.426Z,-2.58
2023-12-08T22:00:37.619Z,-2.59
2023-12-08T22:03:06.223Z,-2.58
2023-12-08T22:05:33.699Z,-2.58
2023-12-08T22:08:00.721Z,-2.56
2023-12-08T22:10:27.766Z,-2.56
2023-12-08T22:12:57.064Z,-2.55
2023-12-08T22:15:23.920Z,-2.56
2023-12-08T22:17:50.918Z,-2.54
2023-12-08T22:20:18.124Z,-2.53
2023-12-08T22:22:44.962Z,-2.53
2023-12-08T22:25:11.789Z,-2.53
2023-12-08T22:27:38.830Z,-2.55
2023-12-08T22:30:07.172Z,-2.56
2023-12-08T22:32:34.267Z,-2.56
2023-12-08T22:35:02.527Z,-2.56
2023-12-08T22:37:29.772Z,-2.59
2023-12-08T22:39:56.883Z,-2.62
2023-12-08T22:51:25.611Z,-2.68
2023-12-08T23:09:58.881Z,-2.78
2023-12-08T23:12:26.079Z,-2.79
2023-12-08T23:15:34.463Z,-2.84
2023-12-08T23:18:14.402Z,-2.87
2023-12-08T23:20:42.014Z,-2.87
2023-12-08T23:23:09.067Z,-2.87
2023-12-08T23:25:36.038Z,-2.87
2023-12-08T23:28:03.168Z,-2.88
2023-12-08T23:30:30.105Z,-2.87
2023-12-08T23:32:57.561Z,-2.86
2023-12-08T23:35:26.905Z,-2.86
2023-12-08T23:37:53.814Z,-2.86
2023-12-08T23:40:21.059Z,-2.87
2023-12-08T23:42:47.829Z,-2.89
2023-12-08T23:45:55.779Z,-2.92
2023-12-08T23:49:32.070Z,-2.94
2023-12-08T23:52:46.237Z,-2.98
2023-12-08T23:55:13.028Z,-3.01
2023-12-08T23:57:41.885Z,-3.01
